sensor_id;sensor_type;location;lat;lon;timestamp;pressure;altitude;pressure_sealevel;temperature;humidity
17781;BME280;8498;52.516;13.790;2023-05-11T00:03:48;100864.91;;;15.12;89.91
17781;BME280;8498;52.516;13.790;2023-05-11T00:09:10;100871.78;;;15.05;89.09
17781;BME280;8498;52.516;13.790;2023-05-11T00:14:33;100863.63;;;14.95;89.86
17781;BME280;8498;52.516;13.790;2023-05-11T00:19:55;100868.06;;;14.85;90.45
17781;BME280;8498;52.516;13.790;2023-05-11T00:25:18;100858.13;;;14.76;90.82
17781;BME280;8498;52.516;13.790;2023-05-11T00:30:41;100863.88;;;14.72;91.12
17781;BME280;8498;52.516;13.790;2023-05-11T00:36:03;100856.09;;;14.68;90.60
17781;BME280;8498;52.516;13.790;2023-05-11T00:41:26;100863.91;;;14.60;90.47
17781;BME280;8498;52.516;13.790;2023-05-11T00:46:48;100871.22;;;14.47;90.50
17781;BME280;8498;52.516;13.790;2023-05-11T00:52:10;100871.72;;;14.41;90.79
17781;BME280;8498;52.516;13.790;2023-05-11T00:57:33;100858.81;;;14.35;91.97
17781;BME280;8498;52.516;13.790;2023-05-11T01:02:58;100872.31;;;14.22;92.07
17781;BME280;8498;52.516;13.790;2023-05-11T01:08:30;100874.63;;;14.16;91.97
17781;BME280;8498;52.516;13.790;2023-05-11T01:13:59;100871.72;;;14.08;92.63
17781;BME280;8498;52.516;13.790;2023-05-11T01:19:40;100868.81;;;14.00;92.73
17781;BME280;8498;52.516;13.790;2023-05-11T01:25:31;100879.38;;;13.90;92.84
17781;BME280;8498;52.516;13.790;2023-05-11T01:31:08;100879.00;;;13.83;92.56
17781;BME280;8498;52.516;13.790;2023-05-11T01:36:33;100876.69;;;13.79;92.26
17781;BME280;8498;52.516;13.790;2023-05-11T01:41:57;100879.25;;;13.69;91.94
17781;BME280;8498;52.516;13.790;2023-05-11T01:47:24;100884.44;;;13.71;91.61
17781;BME280;8498;52.516;13.790;2023-05-11T01:52:49;100892.81;;;13.66;90.87
17781;BME280;8498;52.516;13.790;2023-05-11T01:58:13;100895.84;;;13.62;90.99
17781;BME280;8498;52.516;13.790;2023-05-11T02:03:38;100907.47;;;13.60;90.93
17781;BME280;8498;52.516;13.790;2023-05-11T02:09:03;100903.25;;;13.58;90.75
17781;BME280;8498;52.516;13.790;2023-05-11T02:14:28;100902.28;;;13.59;90.01
17781;BME280;8498;52.516;13.790;2023-05-11T02:19:56;100902.28;;;13.59;89.01
17781;BME280;8498;52.516;13.790;2023-05-11T02:25:19;100900.81;;;13.66;86.93
17781;BME280;8498;52.516;13.790;2023-05-11T02:30:49;100894.97;;;13.61;85.38
17781;BME280;8498;52.516;13.790;2023-05-11T02:36:16;100902.50;;;13.56;85.20
17781;BME280;8498;52.516;13.790;2023-05-11T02:41:42;100915.59;;;13.48;84.66
17781;BME280;8498;52.516;13.790;2023-05-11T02:47:10;100907.31;;;13.40;84.20
17781;BME280;8498;52.516;13.790;2023-05-11T02:52:35;100919.09;;;13.37;83.87
17781;BME280;8498;52.516;13.790;2023-05-11T02:58:01;100924.13;;;13.29;83.33
17781;BME280;8498;52.516;13.790;2023-05-11T03:03:25;100923.16;;;13.30;82.86
17781;BME280;8498;52.516;13.790;2023-05-11T03:08:48;100930.72;;;13.36;81.77
17781;BME280;8498;52.516;13.790;2023-05-11T03:14:12;100930.19;;;13.31;81.37
17781;BME280;8498;52.516;13.790;2023-05-11T03:19:37;100930.56;;;13.27;80.82
17781;BME280;8498;52.516;13.790;2023-05-11T03:25:02;100928.13;;;13.23;80.86
17781;BME280;8498;52.516;13.790;2023-05-11T03:30:25;100930.19;;;13.31;80.46
17781;BME280;8498;52.516;13.790;2023-05-11T03:35:52;100934.13;;;13.38;80.64
17781;BME280;8498;52.516;13.790;2023-05-11T03:41:17;100937.06;;;13.46;79.34
17781;BME280;8498;52.516;13.790;2023-05-11T03:46:46;100928.94;;;13.48;78.71
17781;BME280;8498;52.516;13.790;2023-05-11T03:52:09;100936.94;;;13.48;78.37
17781;BME280;8498;52.516;13.790;2023-05-11T03:57:33;100935.56;;;13.42;78.62
17781;BME280;8498;52.516;13.790;2023-05-11T04:02:56;100941.03;;;13.41;78.58
17781;BME280;8498;52.516;13.790;2023-05-11T04:08:18;100934.97;;;13.39;78.93
17781;BME280;8498;52.516;13.790;2023-05-11T04:13:41;100932.06;;;13.42;78.33
17781;BME280;8498;52.516;13.790;2023-05-11T04:19:03;100942.00;;;13.40;78.59
17781;BME280;8498;52.516;13.790;2023-05-11T04:24:26;100939.09;;;13.43;78.27
17781;BME280;8498;52.516;13.790;2023-05-11T04:29:48;100944.84;;;13.49;77.91
17781;BME280;8498;52.516;13.790;2023-05-11T04:35:11;100938.50;;;13.50;77.75
17781;BME280;8498;52.516;13.790;2023-05-11T04:40:34;100935.28;;;13.58;77.29
17781;BME280;8498;52.516;13.790;2023-05-11T04:45:57;100943.03;;;13.61;77.65
17781;BME280;8498;52.516;13.790;2023-05-11T04:51:24;100958.38;;;13.70;76.81
17781;BME280;8498;52.516;13.790;2023-05-11T04:56:46;100960.31;;;13.79;76.02
17781;BME280;8498;52.516;13.790;2023-05-11T05:02:09;100959.50;;;13.90;75.99
17781;BME280;8498;52.516;13.790;2023-05-11T05:07:32;100964.25;;;13.98;75.84
17781;BME280;8498;52.516;13.790;2023-05-11T05:12:54;100965.34;;;14.06;75.45
17781;BME280;8498;52.516;13.790;2023-05-11T05:18:17;100975.81;;;14.20;75.44
17781;BME280;8498;52.516;13.790;2023-05-11T05:23:40;100974.97;;;14.31;75.04
17781;BME280;8498;52.516;13.790;2023-05-11T05:29:04;100977.16;;;14.48;75.09
17781;BME280;8498;52.516;13.790;2023-05-11T05:34:27;100973.53;;;14.60;74.58
17781;BME280;8498;52.516;13.790;2023-05-11T05:39:49;100985.03;;;14.83;73.69
17781;BME280;8498;52.516;13.790;2023-05-11T05:45:12;100985.59;;;14.98;73.69
17781;BME280;8498;52.516;13.790;2023-05-11T05:50:36;100986.31;;;15.11;73.60
17781;BME280;8498;52.516;13.790;2023-05-11T05:55:59;100999.75;;;15.32;73.01
17781;BME280;8498;52.516;13.790;2023-05-11T06:01:21;100991.44;;;15.46;72.56
17781;BME280;8498;52.516;13.790;2023-05-11T06:06:44;100999.25;;;15.70;71.28
17781;BME280;8498;52.516;13.790;2023-05-11T06:12:07;101010.94;;;15.90;70.46
17781;BME280;8498;52.516;13.790;2023-05-11T06:17:35;100999.78;;;16.05;69.28
17781;BME280;8498;52.516;13.790;2023-05-11T06:22:58;101012.91;;;16.29;67.63
17781;BME280;8498;52.516;13.790;2023-05-11T06:28:21;101001.25;;;16.40;67.75
17781;BME280;8498;52.516;13.790;2023-05-11T06:33:51;101010.31;;;16.79;66.97
17781;BME280;8498;52.516;13.790;2023-05-11T06:39:21;100999.34;;;16.92;65.70
17781;BME280;8498;52.516;13.790;2023-05-11T06:44:44;101000.63;;;17.07;65.11
17781;BME280;8498;52.516;13.790;2023-05-11T06:50:07;101003.91;;;17.20;64.27
17781;BME280;8498;52.516;13.790;2023-05-11T06:55:33;100997.97;;;17.45;62.77
17781;BME280;8498;52.516;13.790;2023-05-11T07:00:55;100998.03;;;17.65;61.45
17781;BME280;8498;52.516;13.790;2023-05-11T07:06:17;100989.94;;;17.84;60.37
17781;BME280;8498;52.516;13.790;2023-05-11T07:11:40;100998.53;;;17.97;60.66
17781;BME280;8498;52.516;13.790;2023-05-11T07:17:03;100996.25;;;18.12;60.56
17781;BME280;8498;52.516;13.790;2023-05-11T07:22:26;100994.91;;;18.35;59.25
17781;BME280;8498;52.516;13.790;2023-05-11T07:27:49;100995.13;;;18.61;56.35
17781;BME280;8498;52.516;13.790;2023-05-11T07:33:11;100998.13;;;18.85;55.55
17781;BME280;8498;52.516;13.790;2023-05-11T07:38:34;101000.69;;;19.04;53.53
17781;BME280;8498;52.516;13.790;2023-05-11T07:43:59;100999.50;;;19.17;52.92
17781;BME280;8498;52.516;13.790;2023-05-11T07:49:22;101000.75;;;19.40;53.25
17781;BME280;8498;52.516;13.790;2023-05-11T07:55:00;101003.06;;;19.70;51.74
17781;BME280;8498;52.516;13.790;2023-05-11T08:00:23;100992.06;;;19.82;51.77
17781;BME280;8498;52.516;13.790;2023-05-11T08:05:45;100997.13;;;20.10;50.76
17781;BME280;8498;52.516;13.790;2023-05-11T08:11:08;100983.03;;;20.42;49.95
17781;BME280;8498;52.516;13.790;2023-05-11T08:16:31;100991.63;;;20.80;49.07
17781;BME280;8498;52.516;13.790;2023-05-11T08:21:54;100992.72;;;21.03;49.43
17781;BME280;8498;52.516;13.790;2023-05-11T08:27:16;100986.34;;;21.12;47.51
17781;BME280;8498;52.516;13.790;2023-05-11T08:32:38;100987.44;;;21.36;47.19
17781;BME280;8498;52.516;13.790;2023-05-11T08:38:19;100984.06;;;21.58;47.61
17781;BME280;8498;52.516;13.790;2023-05-11T08:43:42;100979.19;;;21.70;45.63
17781;BME280;8498;52.516;13.790;2023-05-11T08:49:07;100981.84;;;21.94;44.80
17781;BME280;8498;52.516;13.790;2023-05-11T08:54:30;100986.72;;;22.23;44.51
17781;BME280;8498;52.516;13.790;2023-05-11T08:59:52;100981.25;;;22.47;44.99
17781;BME280;8498;52.516;13.790;2023-05-11T09:05:15;100971.25;;;22.56;44.03
17781;BME280;8498;52.516;13.790;2023-05-11T09:10:39;100979.16;;;22.74;43.73
17781;BME280;8498;52.516;13.790;2023-05-11T09:16:01;100983.78;;;22.96;42.63
17781;BME280;8498;52.516;13.790;2023-05-11T09:21:24;100982.06;;;23.26;42.18
17781;BME280;8498;52.516;13.790;2023-05-11T09:26:47;100987.47;;;23.57;39.93
17781;BME280;8498;52.516;13.790;2023-05-11T09:32:10;100978.66;;;23.32;39.48
17781;BME280;8498;52.516;13.790;2023-05-11T09:37:32;100979.50;;;23.32;41.07
17781;BME280;8498;52.516;13.790;2023-05-11T09:42:56;100983.66;;;22.89;41.65
17781;BME280;8498;52.516;13.790;2023-05-11T09:53:43;100986.16;;;24.86;38.74
17781;BME280;8498;52.516;13.790;2023-05-11T09:59:07;100974.97;;;23.93;38.74
17781;BME280;8498;52.516;13.790;2023-05-11T10:04:29;100977.13;;;23.60;40.63
17781;BME280;8498;52.516;13.790;2023-05-11T10:09:56;100984.19;;;23.38;38.74
17781;BME280;8498;52.516;13.790;2023-05-11T10:15:22;100976.94;;;23.08;39.39
17781;BME280;8498;52.516;13.790;2023-05-11T10:20:49;100967.69;;;23.94;37.25
17781;BME280;8498;52.516;13.790;2023-05-11T10:26:13;100964.59;;;24.85;35.02
17781;BME280;8498;52.516;13.790;2023-05-11T10:31:37;100962.72;;;24.85;34.67
17781;BME280;8498;52.516;13.790;2023-05-11T10:37:00;100974.34;;;23.68;38.12
17781;BME280;8498;52.516;13.790;2023-05-11T11:05:35;100980.56;;;22.53;41.37
17781;BME280;8498;52.516;13.790;2023-05-11T11:11:00;100975.75;;;22.72;40.79
17781;BME280;8498;52.516;13.790;2023-05-11T11:16:22;100986.03;;;22.84;40.07
17781;BME280;8498;52.516;13.790;2023-05-11T11:21:47;100990.41;;;23.24;40.17
17781;BME280;8498;52.516;13.790;2023-05-11T11:27:09;100991.06;;;23.49;39.71
17781;BME280;8498;52.516;13.790;2023-05-11T11:32:33;100989.06;;;23.74;39.67
17781;BME280;8498;52.516;13.790;2023-05-11T11:38:00;100989.22;;;23.72;39.19
17781;BME280;8498;52.516;13.790;2023-05-11T11:43:27;100986.94;;;23.61;38.50
17781;BME280;8498;52.516;13.790;2023-05-11T11:48:50;100995.44;;;23.81;37.86
17781;BME280;8498;52.516;13.790;2023-05-11T11:54:35;100994.31;;;23.53;36.66
17781;BME280;8498;52.516;13.790;2023-05-11T12:05:34;100991.94;;;23.50;36.76
17781;BME280;8498;52.516;13.790;2023-05-11T12:10:59;100986.56;;;23.87;36.31
17781;BME280;8498;52.516;13.790;2023-05-11T12:16:22;100994.72;;;24.54;35.42
17781;BME280;8498;52.516;13.790;2023-05-11T12:21:45;100990.38;;;24.89;35.18
17781;BME280;8498;52.516;13.790;2023-05-11T12:27:08;100986.38;;;25.00;34.51
17781;BME280;8498;52.516;13.790;2023-05-11T12:32:31;100991.13;;;25.12;34.67
17781;BME280;8498;52.516;13.790;2023-05-11T12:37:54;100987.66;;;25.04;33.50
17781;BME280;8498;52.516;13.790;2023-05-11T12:43:21;100995.56;;;24.69;32.99
17781;BME280;8498;52.516;13.790;2023-05-11T12:48:48;100997.78;;;25.10;32.41
17781;BME280;8498;52.516;13.790;2023-05-11T12:54:11;100977.91;;;25.09;32.14
17781;BME280;8498;52.516;13.790;2023-05-11T12:59:37;100983.00;;;24.98;32.41
17781;BME280;8498;52.516;13.790;2023-05-11T13:05:09;100980.44;;;25.11;33.18
17781;BME280;8498;52.516;13.790;2023-05-11T13:10:33;100976.97;;;25.38;31.15
17781;BME280;8498;52.516;13.790;2023-05-11T13:15:55;100970.75;;;25.66;32.64
17781;BME280;8498;52.516;13.790;2023-05-11T13:21:18;100969.91;;;26.14;31.17
17781;BME280;8498;52.516;13.790;2023-05-11T13:26:40;100973.91;;;25.48;31.17
17781;BME280;8498;52.516;13.790;2023-05-11T13:32:03;100972.28;;;24.81;30.80
17781;BME280;8498;52.516;13.790;2023-05-11T13:37:25;100972.88;;;24.62;31.25
17781;BME280;8498;52.516;13.790;2023-05-11T13:42:47;100973.97;;;24.82;31.79
17781;BME280;8498;52.516;13.790;2023-05-11T13:48:10;100978.41;;;24.54;32.06
17781;BME280;8498;52.516;13.790;2023-05-11T13:53:32;100968.59;;;24.24;32.14
17781;BME280;8498;52.516;13.790;2023-05-11T13:58:54;100961.94;;;24.41;32.58
17781;BME280;8498;52.516;13.790;2023-05-11T14:04:21;100955.16;;;24.96;31.80
17781;BME280;8498;52.516;13.790;2023-05-11T14:09:43;100964.19;;;24.67;32.39
17781;BME280;8498;52.516;13.790;2023-05-11T14:15:07;100959.22;;;24.41;32.82
17781;BME280;8498;52.516;13.790;2023-05-11T14:20:34;100947.25;;;24.50;33.18
17781;BME280;8498;52.516;13.790;2023-05-11T14:25:58;100948.84;;;25.10;32.14
17781;BME280;8498;52.516;13.790;2023-05-11T14:31:20;100955.44;;;24.71;32.17
17781;BME280;8498;52.516;13.790;2023-05-11T14:36:43;100957.22;;;24.05;31.35
17781;BME280;8498;52.516;13.790;2023-05-11T14:42:05;100950.56;;;23.93;33.20
17781;BME280;8498;52.516;13.790;2023-05-11T14:47:27;100943.66;;;23.68;32.48
17781;BME280;8498;52.516;13.790;2023-05-11T14:52:50;100950.84;;;23.61;32.20
17781;BME280;8498;52.516;13.790;2023-05-11T14:58:12;100951.09;;;23.51;32.71
17781;BME280;8498;52.516;13.790;2023-05-11T15:03:34;100950.97;;;23.45;32.94
17781;BME280;8498;52.516;13.790;2023-05-11T15:09:00;100968.78;;;23.39;33.99
17781;BME280;8498;52.516;13.790;2023-05-11T15:14:23;100965.41;;;23.37;34.18
17781;BME280;8498;52.516;13.790;2023-05-11T15:19:45;100973.13;;;23.48;34.19
17781;BME280;8498;52.516;13.790;2023-05-11T15:25:08;100970.72;;;23.30;33.68
17781;BME280;8498;52.516;13.790;2023-05-11T15:30:30;100977.31;;;23.28;33.45
17781;BME280;8498;52.516;13.790;2023-05-11T15:35:53;100990.88;;;23.28;34.03
17781;BME280;8498;52.516;13.790;2023-05-11T15:41:17;100992.50;;;23.14;34.19
17781;BME280;8498;52.516;13.790;2023-05-11T15:46:39;100991.78;;;23.20;34.34
17781;BME280;8498;52.516;13.790;2023-05-11T15:52:02;100991.06;;;23.03;35.13
17781;BME280;8498;52.516;13.790;2023-05-11T15:57:24;100997.53;;;22.94;36.76
17781;BME280;8498;52.516;13.790;2023-05-11T16:02:47;101005.66;;;22.94;37.49
17781;BME280;8498;52.516;13.790;2023-05-11T16:08:11;101007.69;;;22.92;37.74
17781;BME280;8498;52.516;13.790;2023-05-11T16:13:34;100993.59;;;22.97;38.22
17781;BME280;8498;52.516;13.790;2023-05-11T16:18:57;100995.41;;;22.74;37.97
17781;BME280;8498;52.516;13.790;2023-05-11T16:24:20;101002.91;;;22.47;38.06
17781;BME280;8498;52.516;13.790;2023-05-11T16:29:42;100998.53;;;22.46;38.16
17781;BME280;8498;52.516;13.790;2023-05-11T16:35:05;101001.41;;;22.45;38.71
17781;BME280;8498;52.516;13.790;2023-05-11T16:40:29;101001.25;;;22.38;38.45
17781;BME280;8498;52.516;13.790;2023-05-11T16:45:54;101002.78;;;22.32;37.68
17781;BME280;8498;52.516;13.790;2023-05-11T16:51:16;101007.00;;;22.35;38.40
17781;BME280;8498;52.516;13.790;2023-05-11T16:56:39;101017.88;;;22.19;37.77
17781;BME280;8498;52.516;13.790;2023-05-11T17:02:01;101019.94;;;22.09;37.56
17781;BME280;8498;52.516;13.790;2023-05-11T17:07:24;101027.00;;;22.02;37.63
17781;BME280;8498;52.516;13.790;2023-05-11T17:12:47;101019.91;;;21.84;37.77
17781;BME280;8498;52.516;13.790;2023-05-11T17:18:09;101020.59;;;21.78;37.85
17781;BME280;8498;52.516;13.790;2023-05-11T17:23:32;101022.44;;;21.70;37.88
17781;BME280;8498;52.516;13.790;2023-05-11T17:28:56;101026.50;;;21.57;38.26
17781;BME280;8498;52.516;13.790;2023-05-11T17:34:18;101022.56;;;21.52;39.49
17781;BME280;8498;52.516;13.790;2023-05-11T17:39:42;101035.09;;;21.45;39.44
17781;BME280;8498;52.516;13.790;2023-05-11T17:45:08;101041.81;;;21.33;39.63
17781;BME280;8498;52.516;13.790;2023-05-11T17:50:31;101051.91;;;21.22;40.66
17781;BME280;8498;52.516;13.790;2023-05-11T17:55:57;101047.78;;;21.10;40.07
17781;BME280;8498;52.516;13.790;2023-05-11T18:01:19;101058.25;;;21.05;40.56
17781;BME280;8498;52.516;13.790;2023-05-11T18:06:44;101061.41;;;20.93;41.58
17781;BME280;8498;52.516;13.790;2023-05-11T18:12:08;101072.94;;;20.77;41.67
17781;BME280;8498;52.516;13.790;2023-05-11T18:17:30;101070.22;;;20.69;42.11
17781;BME280;8498;52.516;13.790;2023-05-11T18:22:54;101080.78;;;20.54;42.62
17781;BME280;8498;52.516;13.790;2023-05-11T18:28:18;101081.34;;;20.40;42.67
17781;BME280;8498;52.516;13.790;2023-05-11T18:33:40;101083.81;;;20.33;42.72
17781;BME280;8498;52.516;13.790;2023-05-11T18:39:03;101087.75;;;20.21;43.85
17781;BME280;8498;52.516;13.790;2023-05-11T18:44:26;101087.78;;;20.03;44.51
17781;BME280;8498;52.516;13.790;2023-05-11T18:49:49;101105.09;;;19.83;45.55
17781;BME280;8498;52.516;13.790;2023-05-11T18:55:11;101111.50;;;19.64;45.72
17781;BME280;8498;52.516;13.790;2023-05-11T19:00:34;101113.72;;;19.41;46.29
17781;BME280;8498;52.516;13.790;2023-05-11T19:06:00;101119.00;;;19.16;47.10
17781;BME280;8498;52.516;13.790;2023-05-11T19:11:23;101123.19;;;18.91;48.29
17781;BME280;8498;52.516;13.790;2023-05-11T19:16:46;101136.84;;;18.70;49.06
17781;BME280;8498;52.516;13.790;2023-05-11T19:22:09;101148.81;;;18.58;49.26
17781;BME280;8498;52.516;13.790;2023-05-11T19:27:31;101154.59;;;18.44;50.08
17781;BME280;8498;52.516;13.790;2023-05-11T19:32:54;101163.53;;;18.34;49.67
17781;BME280;8498;52.516;13.790;2023-05-11T19:38:16;101153.63;;;18.35;50.06
17781;BME280;8498;52.516;13.790;2023-05-11T19:43:39;101167.63;;;18.29;50.32
17781;BME280;8498;52.516;13.790;2023-05-11T19:49:01;101169.78;;;18.25;50.24
17781;BME280;8498;52.516;13.790;2023-05-11T19:54:25;101172.88;;;18.11;50.50
17781;BME280;8498;52.516;13.790;2023-05-11T19:59:47;101176.81;;;18.07;50.49
17781;BME280;8498;52.516;13.790;2023-05-11T20:05:10;101174.44;;;18.04;50.78
17781;BME280;8498;52.516;13.790;2023-05-11T20:10:32;101180.22;;;18.00;51.73
17781;BME280;8498;52.516;13.790;2023-05-11T20:15:55;101190.97;;;17.90;52.53
17781;BME280;8498;52.516;13.790;2023-05-11T20:21:18;101193.63;;;17.80;52.70
17781;BME280;8498;52.516;13.790;2023-05-11T20:26:40;101189.50;;;17.76;53.22
17781;BME280;8498;52.516;13.790;2023-05-11T20:32:03;101194.88;;;17.76;53.39
17781;BME280;8498;52.516;13.790;2023-05-11T20:37:25;101197.16;;;17.71;53.65
17781;BME280;8498;52.516;13.790;2023-05-11T20:42:48;101198.09;;;17.60;54.52
17781;BME280;8498;52.516;13.790;2023-05-11T20:48:10;101197.06;;;17.52;55.29
17781;BME280;8498;52.516;13.790;2023-05-11T20:53:33;101205.25;;;17.50;54.88
17781;BME280;8498;52.516;13.790;2023-05-11T20:58:55;101196.47;;;17.48;55.21
17781;BME280;8498;52.516;13.790;2023-05-11T21:04:18;101201.44;;;17.43;55.82
17781;BME280;8498;52.516;13.790;2023-05-11T21:09:40;101211.72;;;17.38;56.43
17781;BME280;8498;52.516;13.790;2023-05-11T21:15:03;101205.75;;;17.35;56.63
17781;BME280;8498;52.516;13.790;2023-05-11T21:20:26;101210.72;;;17.39;56.31
17781;BME280;8498;52.516;13.790;2023-05-11T21:25:53;101209.75;;;17.40;56.28
17781;BME280;8498;52.516;13.790;2023-05-11T21:31:15;101212.88;;;17.45;55.40
17781;BME280;8498;52.516;13.790;2023-05-11T21:36:38;101214.66;;;17.66;54.17
17781;BME280;8498;52.516;13.790;2023-05-11T21:42:02;101226.13;;;17.68;54.34
17781;BME280;8498;52.516;13.790;2023-05-11T21:47:25;101216.88;;;17.60;54.15
17781;BME280;8498;52.516;13.790;2023-05-11T21:52:48;101228.75;;;17.58;54.34
17781;BME280;8498;52.516;13.790;2023-05-11T21:58:11;101230.59;;;17.57;54.31
17781;BME280;8498;52.516;13.790;2023-05-11T22:03:33;101230.16;;;17.52;54.41
17781;BME280;8498;52.516;13.790;2023-05-11T22:08:56;101246.28;;;17.52;53.80
17781;BME280;8498;52.516;13.790;2023-05-11T22:14:18;101242.88;;;17.50;53.76
17781;BME280;8498;52.516;13.790;2023-05-11T22:19:45;101246.56;;;17.59;53.17
17781;BME280;8498;52.516;13.790;2023-05-11T22:25:07;101252.06;;;17.57;52.53
17781;BME280;8498;52.516;13.790;2023-05-11T22:30:30;101251.34;;;17.55;52.28
17781;BME280;8498;52.516;13.790;2023-05-11T22:35:52;101244.84;;;17.48;51.62
17781;BME280;8498;52.516;13.790;2023-05-11T22:41:15;101253.25;;;17.34;52.12
17781;BME280;8498;52.516;13.790;2023-05-11T22:46:37;101252.63;;;17.21;51.57
17781;BME280;8498;52.516;13.790;2023-05-11T22:52:00;101257.94;;;17.11;51.28
17781;BME280;8498;52.516;13.790;2023-05-11T22:57:24;101256.56;;;16.96;51.34
17781;BME280;8498;52.516;13.790;2023-05-11T23:02:46;101257.75;;;16.82;52.14
17781;BME280;8498;52.516;13.790;2023-05-11T23:08:09;101260.50;;;16.71;52.00
17781;BME280;8498;52.516;13.790;2023-05-11T23:13:31;101270.53;;;16.58;52.14
17781;BME280;8498;52.516;13.790;2023-05-11T23:18:54;101262.66;;;16.45;52.45
17781;BME280;8498;52.516;13.790;2023-05-11T23:24:18;101269.16;;;16.32;52.80
17781;BME280;8498;52.516;13.790;2023-05-11T23:29:40;101257.28;;;16.13;53.20
17781;BME280;8498;52.516;13.790;2023-05-11T23:35:03;101268.16;;;16.01;53.95
17781;BME280;8498;52.516;13.790;2023-05-11T23:40:25;101270.13;;;15.88;54.02
17781;BME280;8498;52.516;13.790;2023-05-11T23:45:49;101249.31;;;15.69;54.73
17781;BME280;8498;52.516;13.790;2023-05-11T23:51:13;101261.63;;;15.60;54.77
17781;BME280;8498;52.516;13.790;2023-05-11T23:56:36;101260.25;;;15.43;54.96
